Time;durP1;ratioP1;P1;durP2;ratioP2;P2;SDS_P1;SDS_P2;PMS_P1;PMS_P2;Temp;Humidity;BMP_temperature;BMP_pressure;BME280_temperature;BME280_humidity;BME280_pressure;Samples;Min_cycle;Max_cycle;Signal;HPM_P1;HPM_P2
2023/06/12 00:01:31;;;;;;;12.02;4.97;;;;;;;13.54;40.57;97530.06;6292045;28;20186;-65
2023/06/12 00:04:33;;;;;;;7.53;4.50;;;;;;;13.45;40.57;97520.94;6292476;28;20044;-64
2023/06/12 00:07:35;;;;;;;7.38;3.63;;;;;;;13.44;40.40;97536.88;6290186;28;20139;-64
2023/06/12 00:10:37;;;;;;;6.55;3.63;;;;;;;13.42;40.51;97542.28;6288542;28;20055;-64
2023/06/12 00:13:41;;;;;;;8.15;3.60;;;;;;;13.45;40.40;97547.38;6286776;28;20068;-64
2023/06/12 00:16:44;;;;;;;7.82;3.60;;;;;;;13.30;40.62;97531.66;6281237;28;20499;-64
2023/06/12 00:19:48;;;;;;;;;;;;;;;13.42;40.42;97546.75;6292810;28;20044;-64
2023/06/12 00:22:54;;;;;;;7.80;3.53;;;;;;;13.32;40.66;97557.03;6291322;28;19970;-64
2023/06/12 00:25:56;;;;;;;7.20;3.13;;;;;;;13.32;40.76;97561.50;6288941;28;20040;-64
2023/06/12 00:28:57;;;;;;;5.38;3.35;;;;;;;13.31;40.71;97573.03;6291226;28;20131;-64
2023/06/12 00:31:58;;;;;;;6.95;2.50;;;;;;;13.15;40.94;97570.47;6286066;28;20534;-65
2023/06/12 00:35:00;;;;;;;4.00;2.75;;;;;;;12.99;41.83;97571.47;6282938;28;20044;-64
2023/06/12 00:38:06;;;;;;;5.53;3.25;;;;;;;12.91;42.87;97573.75;6292294;28;20048;-63
2023/06/12 00:41:07;;;;;;;;;;;;;;;12.85;42.56;97579.41;6289775;28;20417;-64
2023/06/12 00:44:11;;;;;;;5.95;4.00;;;;;;;12.73;44.07;97577.50;6284737;28;20042;-64
2023/06/12 00:47:16;;;;;;;7.72;4.13;;;;;;;12.64;44.49;97596.56;6291954;28;20044;-63
2023/06/12 00:50:27;;;;;;;5.00;3.10;;;;;;;12.70;43.35;97585.63;6269888;28;20041;-64
2023/06/12 00:53:34;;;;;;;7.40;4.22;;;;;;;12.73;42.92;97585.44;6292844;28;20040;-64
2023/06/12 00:56:39;;;;;;;9.05;4.28;;;;;;;12.73;42.98;97581.00;6290799;28;20044;-65
2023/06/12 00:59:43;;;;;;;7.57;4.75;;;;;;;12.67;43.87;97591.09;6287341;28;20036;-64
2023/06/12 01:02:54;;;;;;;9.75;5.05;;;;;;;12.55;44.05;97587.44;6288318;28;20036;-65
2023/06/12 01:05:56;;;;;;;11.85;4.88;;;;;;;12.57;43.71;97612.81;6290484;28;20052;-64
2023/06/12 01:09:36;;;;;;;9.55;3.72;;;;;;;12.62;43.24;97593.19;6292770;28;20526;-64
2023/06/12 01:12:42;;;;;;;8.85;4.55;;;;;;;12.61;43.26;97591.50;6280122;28;20048;-64
2023/06/12 01:15:43;;;;;;;13.80;4.88;;;;;;;12.58;44.60;97588.09;6291769;28;20526;-63
2023/06/12 01:18:50;;;;;;;9.60;4.40;;;;;;;12.46;45.48;97588.84;6291708;28;20052;-63
2023/06/12 01:21:57;;;;;;;10.18;3.83;;;;;;;12.45;45.63;97573.94;6289631;28;20139;-64
2023/06/12 01:25:40;;;;;;;11.98;6.15;;;;;;;12.46;44.70;97530.78;6293666;28;20048;-64
2023/06/12 01:29:34;;;;;;;11.13;5.03;;;;;;;12.49;45.14;97556.97;6177319;28;20576;-64
2023/06/12 01:32:41;;;;;;;11.23;5.25;;;;;;;12.43;45.19;97570.56;6169744;28;20048;-63
2023/06/12 01:35:55;;;;;;;11.88;5.22;;;;;;;12.35;47.13;97576.31;6292701;28;20519;-64
2023/06/12 01:39:04;;;;;;;12.13;5.00;;;;;;;12.46;46.40;97588.84;6290711;28;20045;-63
2023/06/12 01:42:07;;;;;;;8.80;4.28;;;;;;;12.45;46.44;97586.28;6296690;28;20399;-64
2023/06/12 01:45:10;;;;;;;8.20;4.30;;;;;;;12.56;45.63;97594.41;6293138;28;20041;-64
2023/06/12 01:48:13;;;;;;;6.03;2.88;;;;;;;12.66;44.74;97578.84;6295260;28;20036;-64
2023/06/12 01:51:17;;;;;;;4.13;2.17;;;;;;;12.69;43.92;97568.09;6295804;28;20044;-64
2023/06/12 01:54:23;;;;;;;3.55;1.95;;;;;;;12.81;43.47;97593.72;6293126;28;20047;-64
2023/06/12 01:57:27;;;;;;;3.17;1.90;;;;;;;12.91;42.80;97594.88;6278324;28;20040;-64
2023/06/12 02:00:28;;;;;;;;;;;;;;;13.17;42.14;97587.09;6293485;28;20044;-64
2023/06/12 02:03:30;;;;;;;3.45;2.00;;;;;;;13.11;42.47;97587.47;6295263;28;20061;-64
2023/06/12 02:06:32;;;;;;;6.07;1.88;;;;;;;13.06;43.04;97598.34;6295018;28;20036;-65
2023/06/12 02:09:39;;;;;;;7.45;2.30;;;;;;;13.11;43.46;97620.03;6295252;28;20081;-64
2023/06/12 02:12:44;;;;;;;5.90;1.98;;;;;;;13.24;43.41;97625.38;6292545;28;20504;-64
2023/06/12 02:15:50;;;;;;;9.55;2.40;;;;;;;13.32;43.18;97620.47;6290500;28;20040;-64
2023/06/12 02:18:56;;;;;;;8.85;2.08;;;;;;;13.32;42.75;97603.78;6294637;28;20044;-64
2023/06/12 02:22:17;;;;;;;4.60;2.10;;;;;;;13.28;43.01;97612.88;6269177;28;20128;-64
2023/06/12 02:25:19;;;;;;;3.58;1.88;;;;;;;13.16;44.76;97630.28;6294895;28;20039;-64
2023/06/12 02:28:21;;;;;;;3.63;1.88;;;;;;;13.03;44.40;97620.50;6293979;28;20036;-64
2023/06/12 02:31:25;;;;;;;6.65;2.45;;;;;;;12.89;45.21;97623.16;6292570;28;20048;-64
2023/06/12 02:34:28;;;;;;;6.63;1.67;;;;;;;12.84;44.38;97625.22;6293392;28;20029;-64
2023/06/12 02:37:35;;;;;;;2.88;1.42;;;;;;;12.80;45.64;97626.38;6293958;28;20101;-65
2023/06/12 02:40:41;;;;;;;4.50;1.98;;;;;;;12.78;46.71;97615.91;6294070;28;20036;-64
2023/06/12 02:43:47;;;;;;;3.67;1.50;;;;;;;12.79;46.07;97607.06;6277174;28;20044;-64
2023/06/12 02:46:55;;;;;;;4.97;2.20;;;;;;;12.72;46.11;97596.97;6288566;28;20424;-64
2023/06/12 02:49:59;;;;;;;6.55;3.40;;;;;;;12.86;45.14;97607.50;6270316;28;20043;-64
2023/06/12 02:53:00;;;;;;;9.80;4.50;;;;;;;12.88;44.68;97595.06;6293491;28;20412;-66
2023/06/12 02:56:07;;;;;;;3.85;2.42;;;;;;;12.91;44.03;97612.50;6293319;28;20059;-64
2023/06/12 02:59:18;;;;;;;2.35;2.15;;;;;;;12.98;44.11;97625.22;6276051;28;20036;-63
2023/06/12 03:02:24;;;;;;;3.03;1.77;;;;;;;13.30;44.02;97648.78;6284537;28;20040;-64
2023/06/12 03:05:33;;;;;;;5.28;2.40;;;;;;;13.61;43.04;97652.13;6288089;28;20399;-64
2023/06/12 03:08:35;;;;;;;5.20;1.80;;;;;;;13.84;42.68;97664.72;6287424;28;20037;-64
2023/06/12 03:11:41;;;;;;;2.80;1.90;;;;;;;13.95;42.70;97665.78;6290024;28;20029;-64
2023/06/12 03:14:50;;;;;;;3.25;1.63;;;;;;;14.05;42.45;97665.09;6289545;28;20048;-63
2023/06/12 03:17:52;;;;;;;2.15;1.58;;;;;;;14.30;42.17;97676.69;6289559;28;20032;-65
2023/06/12 03:20:53;;;;;;;4.07;2.25;;;;;;;14.56;41.63;97677.63;6288008;28;20032;-64
2023/06/12 03:23:57;;;;;;;2.90;1.50;;;;;;;14.79;40.69;97663.63;6286200;28;20048;-65
2023/06/12 03:27:01;;;;;;;3.10;1.52;;;;;;;15.14;40.22;97656.81;6288232;28;20052;-67
2023/06/12 03:30:05;;;;;;;3.80;1.70;;;;;;;15.31;40.04;97637.03;6287329;28;20097;-65
2023/06/12 03:33:12;;;;;;;2.90;1.80;;;;;;;15.48;39.90;97639.31;6287873;28;20044;-64
2023/06/12 03:36:16;;;;;;;3.85;1.80;;;;;;;15.49;39.92;97641.03;6288116;28;20044;-64
2023/06/12 03:39:20;;;;;;;5.00;1.73;;;;;;;15.66;39.19;97638.00;6288901;28;20530;-64
2023/06/12 03:42:26;;;;;;;4.35;1.60;;;;;;;15.80;38.46;97613.13;6288164;28;20055;-65
2023/06/12 03:45:30;;;;;;;3.90;1.48;;;;;;;16.26;37.86;97635.38;6288037;28;20040;-64
2023/06/12 03:48:31;;;;;;;2.47;1.75;;;;;;;16.41;36.96;97639.53;6287422;28;20047;-64
2023/06/12 03:51:33;;;;;;;3.00;1.67;;;;;;;16.45;36.87;97640.16;6289272;28;20044;-65
2023/06/12 03:54:35;;;;;;;2.95;1.50;;;;;;;16.89;36.21;97643.84;6285139;28;20044;-64
2023/06/12 03:57:38;;;;;;;7.03;5.68;;;;;;;16.99;36.26;97640.38;6286250;28;20041;-65
2023/06/12 04:00:45;;;;;;;7.50;3.30;;;;;;;17.19;35.14;97662.72;6288224;28;20044;-64
2023/06/12 04:03:48;;;;;;;3.65;1.92;;;;;;;17.27;34.85;97678.09;6288284;28;20034;-64
2023/06/12 04:06:54;;;;;;;3.10;1.58;;;;;;;17.25;34.53;97683.50;6285838;28;20114;-64
2023/06/12 04:09:56;;;;;;;3.25;1.83;;;;;;;17.23;34.88;97684.59;6288316;28;20052;-64
2023/06/12 04:12:57;;;;;;;3.35;1.73;;;;;;;17.41;34.73;97693.78;6286884;28;20094;-65
2023/06/12 04:16:04;;;;;;;2.45;1.95;;;;;;;17.95;33.69;97686.84;6287268;28;20044;-65
2023/06/12 04:19:08;;;;;;;3.10;1.33;;;;;;;18.40;32.68;97703.50;6288678;28;20037;-65
2023/06/12 04:22:12;;;;;;;1.60;1.30;;;;;;;18.80;31.69;97689.50;6290135;28;20418;-64
2023/06/12 04:25:18;;;;;;;3.50;1.27;;;;;;;19.09;30.96;97694.13;6270200;28;20037;-64
2023/06/12 04:28:28;;;;;;;1.70;1.10;;;;;;;19.06;30.57;97695.25;6289176;28;20036;-64
2023/06/12 04:31:32;;;;;;;1.40;1.17;;;;;;;18.82;30.78;97660.88;6284417;28;20407;-65
2023/06/12 04:34:43;;;;;;;1.25;1.00;;;;;;;18.74;30.60;97662.50;6291572;28;20044;-63
2023/06/12 04:37:52;;;;;;;1.65;1.02;;;;;;;18.74;30.18;97643.81;6291804;28;20040;-65
2023/06/12 04:41:01;;;;;;;3.97;1.45;;;;;;;18.62;29.89;97638.53;6288100;28;20036;-65
2023/06/12 04:44:08;;;;;;;7.43;3.08;;;;;;;18.62;30.20;97653.69;6292427;28;20511;-64
2023/06/12 04:47:10;;;;;;;2.17;1.30;;;;;;;19.56;28.71;97649.09;6296474;28;20040;-65
2023/06/12 04:50:12;;;;;;;3.85;1.02;;;;;;;21.55;26.89;97658.34;6296552;28;20040;-65
2023/06/12 04:53:19;;;;;;;2.78;0.80;;;;;;;23.93;24.55;97659.13;6273065;28;20402;-65
2023/06/12 04:56:27;;;;;;;1.67;0.90;;;;;;;26.35;22.07;97672.41;6293306;28;20044;-65
2023/06/12 04:59:28;;;;;;;1.38;0.80;;;;;;;28.29;20.19;97671.56;6289660;28;20032;-66
2023/06/12 05:02:34;;;;;;;2.25;0.85;;;;;;;29.73;18.86;97673.97;6295073;28;20669;-66
2023/06/12 05:05:44;;;;;;;4.03;2.60;;;;;;;29.79;18.28;97678.59;6293513;28;20036;-65
2023/06/12 05:08:47;;;;;;;1.58;0.93;;;;;;;30.20;17.78;97669.53;6292178;28;20048;-65
2023/06/12 05:11:53;;;;;;;2.30;0.63;;;;;;;30.93;17.01;97679.72;6296147;28;20419;-66
2023/06/12 05:15:00;;;;;;;1.20;0.60;;;;;;;33.16;15.75;97690.13;6289564;28;20048;-65
2023/06/12 05:18:06;;;;;;;0.85;0.50;;;;;;;35.12;14.25;97693.50;6272346;28;20040;-65
2023/06/12 05:21:13;;;;;;;1.55;0.50;;;;;;;37.03;13.01;97689.81;6273042;28;20041;-65
2023/06/12 05:24:17;;;;;;;3.20;0.68;;;;;;;38.37;12.20;97703.47;6273918;28;20032;-65
2023/06/12 05:27:18;;;;;;;;;;;;;;;41.37;11.30;97718.34;6297327;28;20048;-66
2023/06/12 05:30:22;;;;;;;1.93;0.43;;;;;;;41.93;10.18;97699.75;6286874;28;19920;-66
2023/06/12 05:33:26;;;;;;;0.52;0.25;;;;;;;42.62;9.48;97694.41;6297145;28;20443;-65
2023/06/12 05:36:33;;;;;;;1.33;0.50;;;;;;;40.71;10.08;97681.34;6296253;28;20519;-65
2023/06/12 05:39:34;;;;;;;0.20;0.20;;;;;;;38.28;11.04;97667.38;6296700;28;20049;-65
2023/06/12 05:42:39;;;;;;;1.60;0.38;;;;;;;36.13;12.51;97661.28;6277311;28;20107;-65
2023/06/12 05:45:45;;;;;;;1.15;0.60;;;;;;;34.34;13.61;97645.28;6294791;28;20056;-66
2023/06/12 05:48:48;;;;;;;2.42;0.57;;;;;;;33.83;13.73;97658.34;6275165;28;20056;-65
2023/06/12 05:51:53;;;;;;;0.90;0.65;;;;;;;33.65;13.69;97655.63;6294852;28;20526;-67
2023/06/12 05:54:57;;;;;;;0.80;0.65;;;;;;;33.79;13.57;97639.91;6281289;28;20036;-66
2023/06/12 05:57:58;;;;;;;2.15;1.00;;;;;;;34.09;13.78;97642.72;6288711;28;20187;-65
2023/06/12 06:01:03;;;;;;;4.25;0.60;;;;;;;35.35;12.79;97643.44;6289726;28;20067;-66
2023/06/12 06:04:11;;;;;;;1.48;0.70;;;;;;;37.97;11.23;97649.72;6287646;28;20036;-65
2023/06/12 06:07:14;;;;;;;1.48;0.70;;;;;;;40.00;10.00;97656.28;6290642;28;20075;-66
2023/06/12 06:10:18;;;;;;;2.17;0.73;;;;;;;40.96;9.38;97644.63;6289149;28;20127;-65
2023/06/12 06:13:24;;;;;;;1.55;0.50;;;;;;;42.20;9.00;97640.44;6278273;28;20060;-65
2023/06/12 06:16:30;;;;;;;0.65;0.50;;;;;;;43.27;8.65;97622.22;6286565;28;20130;-67
2023/06/12 06:19:37;;;;;;;3.08;0.60;;;;;;;42.78;8.51;97624.03;6287204;28;20048;-65
2023/06/12 06:22:40;;;;;;;0.68;0.45;;;;;;;43.83;7.92;97615.22;6288378;28;20044;-66
2023/06/12 06:25:47;;;;;;;1.45;0.65;;;;;;;42.55;8.40;97614.53;6293525;28;20056;-66
2023/06/12 06:28:53;;;;;;;4.60;3.60;;;;;;;40.68;9.33;97606.56;6292443;28;20045;-66
2023/06/12 06:31:55;;;;;;;1.67;0.95;;;;;;;38.56;10.82;97594.00;6292645;28;20059;-65
2023/06/12 06:34:59;;;;;;;1.20;0.85;;;;;;;35.86;12.34;97591.69;6291130;28;20033;-65
2023/06/12 06:38:01;;;;;;;2.47;0.52;;;;;;;33.66;13.56;97580.88;6297061;28;20461;-66
2023/06/12 06:41:05;;;;;;;1.15;0.60;;;;;;;33.17;14.14;97571.78;6293819;28;20033;-66
2023/06/12 06:44:13;;;;;;;1.95;0.93;;;;;;;34.48;12.75;97578.47;6293676;28;20139;-66
2023/06/12 06:47:19;;;;;;;1.98;0.90;;;;;;;37.44;11.31;97583.34;6294892;28;20047;-66
2023/06/12 06:50:25;;;;;;;0.60;0.55;;;;;;;39.91;9.97;97587.09;6294577;28;20045;-66
2023/06/12 06:53:33;;;;;;;1.05;0.50;;;;;;;41.82;8.86;97587.56;6294288;28;20036;-66
2023/06/12 06:56:37;;;;;;;0.90;0.38;;;;;;;42.61;8.67;97587.63;6276314;28;20052;-66
2023/06/12 06:59:43;;;;;;;2.88;0.43;;;;;;;44.70;7.86;97598.16;6306002;28;20135;-67
2023/06/12 07:02:53;;;;;;;2.78;2.10;;;;;;;45.91;6.86;97598.94;6303860;28;20040;-67
2023/06/12 07:05:54;;;;;;;2.97;1.17;;;;;;;46.32;6.88;97598.03;6292989;28;20139;-67
2023/06/12 07:08:58;;;;;;;1.20;0.82;;;;;;;46.97;6.66;97612.59;6293574;28;20060;-67
2023/06/12 07:12:02;;;;;;;1.95;0.65;;;;;;;47.87;5.94;97595.63;6293857;28;20500;-67
2023/06/12 07:15:08;;;;;;;1.25;0.82;;;;;;;48.81;6.06;97601.59;6294489;28;20503;-67
2023/06/12 07:18:10;;;;;;;1.67;1.17;;;;;;;49.29;5.38;97589.34;6292813;28;20113;-66
2023/06/12 07:21:17;;;;;;;2.10;0.90;;;;;;;49.55;5.33;97585.59;6293816;28;20461;-66
2023/06/12 07:24:23;;;;;;;1.00;0.50;;;;;;;49.06;5.77;97585.13;6291185;28;20041;-68
2023/06/12 07:27:31;;;;;;;3.63;0.70;;;;;;;48.47;5.68;97585.66;6290149;28;20041;-66
2023/06/12 07:30:38;;;;;;;3.10;0.57;;;;;;;47.64;6.02;97570.63;6285641;28;20044;-66
2023/06/12 07:33:42;;;;;;;1.00;0.30;;;;;;;47.41;5.97;97566.31;6289988;28;20408;-66
2023/06/12 07:36:48;;;;;;;2.03;0.60;;;;;;;46.41;6.59;97550.78;6286907;28;20078;-68
2023/06/12 07:39:53;;;;;;;1.30;0.50;;;;;;;45.79;6.81;97551.34;6281308;28;20037;-68
2023/06/12 07:43:00;;;;;;;1.27;0.68;;;;;;;44.40;7.37;97538.44;6285482;28;20057;-68
2023/06/12 07:46:02;;;;;;;2.05;0.57;;;;;;;42.03;8.75;97543.22;6288364;28;20086;-66
2023/06/12 07:49:05;;;;;;;1.50;0.55;;;;;;;39.98;9.48;97543.59;6289047;28;20411;-66
2023/06/12 07:52:06;;;;;;;1.65;0.80;;;;;;;37.40;11.03;97529.25;6289142;28;20045;-66
2023/06/12 07:55:08;;;;;;;1.73;0.77;;;;;;;34.75;12.37;97513.25;6287023;28;20158;-64
2023/06/12 07:58:14;;;;;;;1.77;1.38;;;;;;;32.78;14.00;97502.97;6284290;28;20041;-66
2023/06/12 08:01:22;;;;;;;1.02;0.93;;;;;;;32.57;14.18;97506.97;6288955;28;20432;-66
2023/06/12 08:04:29;;;;;;;1.83;0.90;;;;;;;32.84;13.88;97510.25;6288818;28;20048;-65
2023/06/12 08:07:36;;;;;;;4.00;3.20;;;;;;;35.14;12.97;97505.38;6288807;28;20044;-66
2023/06/12 08:10:37;;;;;;;2.67;2.30;;;;;;;36.57;12.14;97502.56;6282700;28;20123;-67
2023/06/12 08:13:40;;;;;;;3.35;1.40;;;;;;;37.23;11.57;97512.84;6290778;28;20071;-67
2023/06/12 08:16:45;;;;;;;2.67;0.93;;;;;;;39.12;10.68;97513.75;6288961;28;20057;-66
2023/06/12 08:19:48;;;;;;;1.73;0.50;;;;;;;40.61;9.59;97519.34;6291990;28;20059;-66
2023/06/12 08:22:54;;;;;;;2.58;0.63;;;;;;;41.17;9.31;97510.19;6291354;28;20052;-66
2023/06/12 08:25:58;;;;;;;2.20;0.80;;;;;;;41.03;9.48;97500.81;6273110;28;20135;-67
2023/06/12 08:29:02;;;;;;;2.22;1.00;;;;;;;41.37;9.27;97497.41;6276722;28;20070;-66
2023/06/12 08:32:06;;;;;;;1.88;0.88;;;;;;;40.54;9.42;97490.41;6288736;28;20032;-66
2023/06/12 08:35:13;;;;;;;1.92;0.93;;;;;;;40.07;9.64;97486.81;6291891;28;20098;-67
2023/06/12 08:38:15;;;;;;;1.77;1.00;;;;;;;39.76;9.94;97485.13;6288623;28;20064;-67
2023/06/12 08:41:21;;;;;;;3.33;1.00;;;;;;;38.34;10.29;97470.34;6281555;28;20404;-65
2023/06/12 08:44:28;;;;;;;1.67;0.77;;;;;;;36.68;11.56;97458.84;6288457;28;20607;-66
2023/06/12 08:47:39;;;;;;;1.60;0.70;;;;;;;35.16;12.81;97464.94;6284330;28;20041;-65
2023/06/12 08:50:47;;;;;;;1.38;0.80;;;;;;;34.33;13.23;97449.66;6292489;28;20508;-66
2023/06/12 08:53:55;;;;;;;2.25;0.82;;;;;;;33.38;13.73;97437.69;6282051;28;20040;-64
2023/06/12 08:56:59;;;;;;;1.42;0.70;;;;;;;32.34;14.35;97434.03;6286770;28;20056;-64
2023/06/12 09:00:06;;;;;;;1.42;1.00;;;;;;;31.17;15.76;97418.09;6291084;28;20037;-65
2023/06/12 09:03:14;;;;;;;1.42;1.10;;;;;;;30.14;16.99;97431.50;6289350;28;20040;-64
2023/06/12 09:06:18;;;;;;;2.88;1.50;;;;;;;29.17;17.77;97432.84;6290810;28;20147;-64
2023/06/12 09:09:38;;;;;;;2.85;1.40;;;;;;;28.79;18.18;97438.69;6292631;28;20044;-64
2023/06/12 09:12:43;;;;;;;3.05;2.17;;;;;;;28.75;17.92;97415.78;6292132;28;20410;-66
2023/06/12 09:15:54;;;;;;;3.35;1.10;;;;;;;29.53;17.63;97443.38;6292368;28;20529;-65
2023/06/12 09:18:58;;;;;;;0.95;0.82;;;;;;;30.30;16.80;97441.16;6278471;28;20071;-65
2023/06/12 09:22:03;;;;;;;1.02;0.80;;;;;;;30.73;16.58;97451.50;6266682;28;20710;-64
2023/06/12 09:25:06;;;;;;;3.45;0.93;;;;;;;31.41;16.20;97453.75;6266739;28;20052;-64
2023/06/12 09:28:12;;;;;;;2.67;0.90;;;;;;;32.49;15.26;97456.31;6276692;28;20048;-65
2023/06/12 09:31:14;;;;;;;2.63;0.63;;;;;;;32.88;14.86;97451.50;6296800;28;20131;-64
2023/06/12 09:34:18;;;;;;;1.55;0.80;;;;;;;32.35;15.61;97444.69;6296593;28;20044;-65
2023/06/12 09:37:22;;;;;;;1.88;0.90;;;;;;;32.25;15.38;97435.38;6272357;28;20045;-65
2023/06/12 09:40:25;;;;;;;6.03;1.10;;;;;;;31.67;15.88;97431.00;6272189;28;20045;-65
2023/06/12 09:43:32;;;;;;;3.00;1.35;;;;;;;30.95;16.57;97439.31;6271438;28;20053;-65
2023/06/12 09:46:39;;;;;;;1.90;1.00;;;;;;;30.47;17.04;97436.09;6291045;28;20189;-65
2023/06/12 09:49:42;;;;;;;1.27;1.00;;;;;;;30.97;16.99;97439.09;6294950;28;20049;-64
2023/06/12 09:52:48;;;;;;;1.42;1.02;;;;;;;32.03;15.93;97446.66;6295490;28;20517;-64
2023/06/12 09:55:51;;;;;;;6.32;4.65;;;;;;;32.48;15.47;97437.47;6295509;28;20537;-64
2023/06/12 09:58:58;;;;;;;4.57;2.40;;;;;;;31.66;15.55;97419.28;6294840;28;20515;-65
2023/06/12 10:02:05;;;;;;;4.50;1.40;;;;;;;30.78;16.36;97422.63;6294603;28;20052;-64
2023/06/12 10:05:16;;;;;;;3.20;1.25;;;;;;;30.15;17.37;97425.06;6295595;28;20426;-64
2023/06/12 10:08:17;;;;;;;2.67;1.23;;;;;;;29.34;17.96;97404.31;6294829;28;20044;-65
2023/06/12 10:11:22;;;;;;;3.83;1.40;;;;;;;28.71;18.50;97387.44;6295690;28;20540;-64
2023/06/12 10:14:34;;;;;;;4.72;1.20;;;;;;;28.07;19.13;97375.81;6295375;28;20044;-64
2023/06/12 10:17:40;;;;;;;2.42;1.10;;;;;;;28.01;19.61;97398.25;6295399;28;20044;-64
2023/06/12 10:20:49;;;;;;;2.65;0.90;;;;;;;28.09;19.32;97406.22;6283768;28;20045;-64
2023/06/12 10:23:54;;;;;;;3.28;1.80;;;;;;;28.39;19.38;97395.13;6279493;28;20045;-64
2023/06/12 10:26:57;;;;;;;3.05;1.75;;;;;;;28.65;19.07;97417.00;6292610;28;20063;-63
2023/06/12 10:30:00;;;;;;;3.92;1.50;;;;;;;28.82;18.96;97414.78;6291298;28;20041;-69
2023/06/12 10:33:13;;;;;;;3.25;1.25;;;;;;;28.65;19.07;97416.16;6287901;28;20056;-64
2023/06/12 10:36:17;;;;;;;2.25;1.02;;;;;;;28.24;19.00;97403.38;6287918;28;20037;-64
2023/06/12 10:39:23;;;;;;;1.15;0.70;;;;;;;27.81;19.81;97397.25;6289094;28;20127;-65
2023/06/12 10:42:53;;;;;;;1.42;0.88;;;;;;;27.43;20.18;97390.25;6284818;28;20044;-64
2023/06/12 10:46:00;;;;;;;2.42;1.10;;;;;;;26.96;20.70;97388.06;6288194;28;20187;-65
2023/06/12 10:49:07;;;;;;;2.97;1.30;;;;;;;26.45;21.54;97396.97;6287954;28;20638;-65
2023/06/12 10:52:20;;;;;;;4.18;1.13;;;;;;;25.81;22.25;97400.13;6287629;28;20708;-66
2023/06/12 10:55:29;;;;;;;3.08;1.23;;;;;;;25.43;22.38;97397.41;6289618;28;20040;-64
2023/06/12 10:58:38;;;;;;;1.60;1.10;;;;;;;25.40;22.45;97387.00;6288273;28;20047;-64
2023/06/12 11:01:39;;;;;;;1.90;1.35;;;;;;;25.45;22.50;97390.00;6290974;28;20028;-64
2023/06/12 11:04:45;;;;;;;2.38;1.15;;;;;;;25.83;22.52;97387.34;6288655;28;20447;-65
2023/06/12 11:07:50;;;;;;;3.70;1.42;;;;;;;26.99;21.59;97371.47;6290028;28;20056;-64
2023/06/12 11:10:51;;;;;;;4.10;1.40;;;;;;;27.91;20.21;97397.72;6289297;28;20577;-64
2023/06/12 11:13:53;;;;;;;2.65;1.40;;;;;;;28.56;19.52;97406.50;6287209;28;20135;-63
2023/06/12 11:17:00;;;;;;;5.93;2.15;;;;;;;29.48;18.63;97411.44;6287594;28;20567;-64
2023/06/12 11:20:08;;;;;;;5.53;2.42;;;;;;;30.22;17.80;97423.19;6287023;28;20041;-64
2023/06/12 11:23:11;;;;;;;6.38;2.65;;;;;;;30.52;17.66;97425.44;6291029;28;20044;-64
2023/06/12 11:26:15;;;;;;;6.90;2.58;;;;;;;30.69;17.26;97434.78;6273489;28;20127;-65
2023/06/12 11:29:25;;;;;;;4.03;2.33;;;;;;;30.54;17.55;97426.03;6293438;28;20522;-65
2023/06/12 11:32:30;;;;;;;7.60;3.10;;;;;;;30.17;18.04;97426.50;6293134;28;20055;-64
2023/06/12 11:35:31;;;;;;;6.10;2.45;;;;;;;30.30;18.18;97438.44;6293312;28;20040;-71
2023/06/12 11:38:33;;;;;;;7.50;1.52;;;;;;;30.32;18.15;97426.31;6283355;28;20028;-64
2023/06/12 11:41:42;;;;;;;5.38;1.70;;;;;;;29.97;18.75;97428.38;6292496;28;20055;-64
2023/06/12 11:44:50;;;;;;;5.80;1.60;;;;;;;29.47;19.09;97428.75;6291207;28;20072;-64
2023/06/12 11:47:55;;;;;;;4.43;1.75;;;;;;;28.69;20.16;97428.25;6292401;28;20090;-64
2023/06/12 11:50:57;;;;;;;8.02;2.10;;;;;;;27.80;20.94;97428.00;6287535;28;20065;-64
2023/06/12 11:54:01;;;;;;;6.15;2.08;;;;;;;26.60;21.85;97418.56;6275863;28;20041;-64
2023/06/12 11:57:15;;;;;;;3.85;2.28;;;;;;;26.29;22.55;97443.84;6290164;28;20056;-64
2023/06/12 12:00:19;;;;;;;4.50;1.70;;;;;;;25.62;23.11;97454.53;6293399;28;20427;-64
2023/06/12 12:03:24;;;;;;;4.32;1.88;;;;;;;25.54;23.65;97458.97;6289037;28;20041;-65
2023/06/12 12:06:29;;;;;;;9.02;2.35;;;;;;;25.87;23.31;97452.50;6290478;28;20052;-65
2023/06/12 12:09:30;;;;;;;7.00;1.90;;;;;;;26.11;23.09;97464.94;6286504;28;20037;-64
2023/06/12 12:13:01;;;;;;;5.60;2.03;;;;;;;26.02;22.88;97460.66;6292269;28;20052;-64
2023/06/12 12:16:11;;;;;;;6.15;1.95;;;;;;;25.18;23.77;97436.31;6288763;28;20047;-64
2023/06/12 12:19:25;;;;;;;6.50;2.15;;;;;;;24.60;24.46;97428.50;6289995;28;20056;-64
2023/06/12 12:22:29;;;;;;;4.97;1.92;;;;;;;24.09;24.84;97430.66;6293135;28;20444;-64
2023/06/12 12:25:33;;;;;;;5.20;1.88;;;;;;;23.73;25.59;97431.00;6285214;28;20120;-65
2023/06/12 12:28:34;;;;;;;13.63;2.33;;;;;;;23.34;26.43;97427.28;6291719;28;20044;-64
2023/06/12 12:31:37;;;;;;;2.97;1.80;;;;;;;22.92;26.70;97420.13;6290497;28;20047;-66
2023/06/12 12:34:38;;;;;;;10.43;2.75;;;;;;;22.68;27.05;97412.84;6289059;28;20039;-69
2023/06/12 12:37:47;;;;;;;5.18;2.42;;;;;;;22.48;27.39;97412.28;6291707;28;20041;-64
2023/06/12 12:40:53;;;;;;;4.93;2.72;;;;;;;22.44;27.58;97416.25;6292309;28;20039;-64
2023/06/12 12:43:56;;;;;;;5.03;2.70;;;;;;;22.42;27.49;97414.59;6288491;28;20139;-64
2023/06/12 12:46:58;;;;;;;20.23;10.93;;;;;;;22.43;27.55;97415.41;6290868;28;20044;-70
2023/06/12 12:50:03;;;;;;;8.65;4.28;;;;;;;22.18;27.76;97407.25;6288925;28;20033;-66
2023/06/12 12:53:07;;;;;;;;;;;;;;;22.23;27.42;97404.09;6290697;28;20113;-68
2023/06/12 12:56:14;;;;;;;10.00;2.90;;;;;;;22.22;27.75;97391.69;6292658;28;19951;-68
2023/06/12 12:59:18;;;;;;;5.72;2.35;;;;;;;22.24;27.85;97395.03;6283587;28;20045;-64
2023/06/12 13:02:22;;;;;;;6.38;2.03;;;;;;;22.38;27.75;97418.56;6288359;28;20442;-65
2023/06/12 13:05:28;;;;;;;5.40;2.08;;;;;;;22.43;27.74;97420.78;6295613;28;20045;-65
2023/06/12 13:08:33;;;;;;;5.55;2.13;;;;;;;22.39;27.61;97414.91;6278722;28;20044;-66
2023/06/12 13:11:37;;;;;;;4.50;2.20;;;;;;;22.31;27.59;97412.19;6272496;28;20037;-67
2023/06/12 13:14:41;;;;;;;4.55;1.73;;;;;;;22.11;27.91;97430.31;6284188;28;20152;-64
2023/06/12 13:17:44;;;;;;;3.63;2.20;;;;;;;21.98;28.17;97427.19;6294535;28;20044;-69
2023/06/12 13:20:50;;;;;;;10.40;4.65;;;;;;;21.85;28.38;97427.59;6297143;28;20518;-68
2023/06/12 13:23:58;;;;;;;3.45;2.30;;;;;;;21.84;27.99;97409.84;6286054;28;20032;-65
2023/06/12 13:27:05;;;;;;;2.72;1.65;;;;;;;21.83;28.19;97407.34;6295482;28;20179;-64
2023/06/12 13:30:07;;;;;;;4.07;1.30;;;;;;;21.74;27.98;97438.59;6293290;28;20037;-64
2023/06/12 13:33:10;;;;;;;2.35;1.48;;;;;;;21.64;28.31;97440.50;6295266;28;20040;-65
2023/06/12 13:36:17;;;;;;;2.65;1.85;;;;;;;21.56;28.58;97448.47;6278150;28;20032;-64
2023/06/12 13:39:21;;;;;;;4.60;1.98;;;;;;;21.44;28.75;97459.41;6293682;28;20028;-63
2023/06/12 13:42:26;;;;;;;3.38;1.73;;;;;;;21.27;29.24;97465.59;6293311;28;20059;-64
2023/06/12 13:45:27;;;;;;;5.68;2.20;;;;;;;21.08;29.88;97467.38;6276488;28;20048;-63
2023/06/12 13:48:33;;;;;;;5.22;1.90;;;;;;;20.90;30.20;97469.19;6286468;28;20499;-64
2023/06/12 13:51:37;;;;;;;7.22;1.85;;;;;;;20.78;30.17;97478.44;6274956;28;20059;-68
2023/06/12 13:54:39;;;;;;;9.07;2.50;;;;;;;20.69;31.60;97479.28;6295893;28;20047;-64
2023/06/12 13:57:44;;;;;;;8.13;2.58;;;;;;;20.58;32.62;97486.53;6295217;28;20087;-64
2023/06/12 14:00:48;;;;;;;2.40;1.80;;;;;;;20.51;33.67;97482.72;6288958;28;20039;-64
2023/06/12 14:03:50;;;;;;;6.65;2.90;;;;;;;20.44;33.75;97478.97;6295379;28;20045;-67
2023/06/12 14:06:55;;;;;;;10.10;3.08;;;;;;;20.24;34.07;97472.84;6295102;28;20048;-63
2023/06/12 14:09:56;;;;;;;5.87;2.30;;;;;;;20.01;33.76;97483.00;6295275;28;20475;-65
2023/06/12 14:12:58;;;;;;;5.75;2.08;;;;;;;19.77;34.07;97479.97;6295354;28;20462;-67
2023/06/12 14:16:05;;;;;;;4.70;2.83;;;;;;;19.60;33.98;97490.34;6294644;28;20086;-65
2023/06/12 14:19:09;;;;;;;7.80;2.33;;;;;;;19.49;34.08;97493.97;6294832;28;20423;-63
2023/06/12 14:22:17;;;;;;;4.22;1.73;;;;;;;19.55;34.03;97484.56;6295051;28;20041;-63
2023/06/12 14:25:25;;;;;;;7.50;2.55;;;;;;;19.54;33.57;97493.56;6311057;28;20139;-68
2023/06/12 14:28:26;;;;;;;3.90;1.90;;;;;;;19.34;33.95;97474.03;6320689;28;20044;-63
2023/06/12 14:31:27;;;;;;;5.65;2.67;;;;;;;19.26;34.15;97481.88;6320509;28;20036;-64
2023/06/12 14:34:31;;;;;;;5.78;2.03;;;;;;;19.13;34.28;97473.31;6279042;28;20227;-63